Canovanas, PR

5:49 PM AST on July 24, 2016 (GMT -0400)
Ciudad Jardin | | Change Station

Elev 10 ft 18.37 °N, 65.93 °W | Updated 35 seconds ago

Scattered Clouds
Scattered Clouds
85.9 °F
Feels Like 96 °F
N
4.0
Wind Variable Wind from ENE
Gusts 9.0 mph

Today
High -- | Low -- °F
--% Chance of Precip.
Yesterday
High -- | Low -- °F
Precip. -- in
Pressure 29.99 in
Visibility 10.0 miles
Clouds Few 2800 ft
Scattered Clouds 3400 ft
Scattered Clouds 8500 ft
Heat Index 96 °F
Dew Point 76 °F
Humidity 72%
Rainfall 0.00 in
Snow Depth Not available.
5:59 AM 7:01 PM
Waning Gibbous, 73% visible
METAR TJSJ 242056Z 08014KT 10SM FEW028 SCT034 SCT085 30/24 A2999 RMK AO2 SLP153 VCSH S SW T03000239 55006 $
Pressure 29.99 in
Visibility 10.0 miles
Clouds Few 2800 ft
Scattered Clouds 3400 ft
Scattered Clouds 8500 ft
Heat Index 96 °F
Dew Point 76 °F
Humidity 72%
Rainfall 0.00 in
Snow Depth Not available.
5:59 AM 7:01 PM
Waning Gibbous, 73% visible
METAR TJSJ 242056Z 08014KT 10SM FEW028 SCT034 SCT085 30/24 A2999 RMK AO2 SLP153 VCSH S SW T03000239 55006 $

10-Day Weather Forecast

Almanac

Astronomy

Jul. 24, 2016 Rise Set
Actual Time
Civil Twilight
Nautical Twilight
Astronomical Twilight
Moon
Length of Visible Light
Length of Day
Tomorrow will be .
, % of the Moon is Illuminated

Today's Extremes

State Highs State Lows

Community

WunderPhotos

Upload Photos

1,927,195 photos uploaded!

WunderBlog® & News

Nearby

Air Quality

  Air Quality AQ Index Pollutant
Not available.

Snow Depth

Station Depth Elevation

Earthquake Activity

City Distance Mag. Time & Date
Minimum magnitude displayed is 2.5.

Coastal Water Temperatures

Place Temperature

Stations

Nearby Weather Stations

Station Location Temp. Windchill Dew Point Humidity Wind Precip. Elev Updated Type
                   

Watches & Warnings

There are currently no watches in effect.